Time;durP1;ratioP1;P1;durP2;ratioP2;P2;SDS_P1;SDS_P2;PMS_P1;PMS_P2;Temp;Humidity;BMP_temperature;BMP_pressure;BME280_temperature;BME280_humidity;BME280_pressure;Samples;Min_cycle;Max_cycle;Signal;HPM_P1;HPM_P2
2023/05/04 00:02:28;;;;;;;5.70;3.23;;;12.30;72.20;;;;;;5022178;28;20235;-64
2023/05/04 00:04:55;;;;;;;6.60;3.27;;;12.30;73.00;;;;;;5020099;28;20718;-64
2023/05/04 00:07:22;;;;;;;4.87;3.20;;;12.20;72.20;;;;;;5030580;28;20244;-65
2023/05/04 00:09:49;;;;;;;7.77;3.70;;;12.20;72.30;;;;;;5029858;28;20192;-65
2023/05/04 00:12:17;;;;;;;5.70;3.17;;;12.20;72.30;;;;;;5029564;28;20190;-64
2023/05/04 00:14:44;;;;;;;6.43;3.57;;;12.20;72.30;;;;;;5024812;28;20249;-65
2023/05/04 00:17:11;;;;;;;6.17;3.40;;;12.20;72.40;;;;;;5027411;28;20210;-64
2023/05/04 00:19:41;;;;;;;7.10;3.87;;;12.20;72.40;;;;;;5030208;28;20291;-65
2023/05/04 00:22:08;;;;;;;4.87;3.33;;;12.10;72.40;;;;;;5029973;28;20301;-65
2023/05/04 00:24:35;;;;;;;8.83;3.53;;;12.10;72.50;;;;;;5012422;28;20784;-65
2023/05/04 00:27:02;;;;;;;5.60;3.30;;;12.10;72.50;;;;;;5030489;28;20222;-65
2023/05/04 00:29:29;;;;;;;6.70;3.43;;;12.10;72.40;;;;;;5029276;28;20200;-65
2023/05/04 00:31:57;;;;;;;7.00;3.13;;;12.10;72.30;;;;;;5029306;28;20203;-64
2023/05/04 00:34:24;;;;;;;7.23;3.50;;;12.00;72.50;;;;;;5010727;28;20207;-64
2023/05/04 00:36:52;;;;;;;7.07;3.60;;;12.00;72.30;;;;;;5030190;28;20211;-65
2023/05/04 00:39:19;;;;;;;6.93;3.40;;;12.00;72.40;;;;;;5030201;28;20241;-65
2023/05/04 00:41:46;;;;;;;6.83;3.37;;;11.90;72.30;;;;;;5030181;28;20190;-64
2023/05/04 00:44:14;;;;;;;6.77;3.40;;;11.90;72.50;;;;;;5030979;28;20221;-64
2023/05/04 00:46:41;;;;;;;4.40;2.80;;;11.90;72.40;;;;;;5030176;28;20201;-65
2023/05/04 00:49:08;;;;;;;4.43;2.67;;;11.90;72.30;;;;;;5011938;28;20634;-65
2023/05/04 00:51:37;;;;;;;5.00;3.30;;;11.80;72.30;;;;;;5030025;28;20210;-65
2023/05/04 00:54:05;;;;;;;6.07;3.50;;;11.70;72.40;;;;;;5029881;28;20665;-64
2023/05/04 00:56:37;;;;;;;3.37;2.70;;;11.70;72.60;;;;;;5032607;28;20609;-65
2023/05/04 00:59:05;;;;;;;3.63;2.57;;;11.70;72.50;;;;;;5033087;28;20190;-64
2023/05/04 01:01:32;;;;;;;5.47;3.00;;;11.70;73.30;;;;;;5032863;28;20199;-64
2023/05/04 01:03:59;;;;;;;4.10;2.80;;;11.70;72.60;;;;;;5029659;28;20250;-64
2023/05/04 01:06:34;;;;;;;4.07;3.10;;;11.80;72.60;;;;;;5029419;28;20203;-64
2023/05/04 01:09:09;;;;;;;5.27;3.00;;;11.80;72.60;;;;;;5032679;28;20194;-64
2023/05/04 01:11:42;;;;;;;4.90;2.90;;;11.80;72.50;;;;;;5012807;28;20305;-64
2023/05/04 01:14:11;;;;;;;4.80;3.00;;;11.70;72.50;;;;;;5032612;28;20195;-64
2023/05/04 01:16:38;;;;;;;3.37;2.60;;;11.70;72.50;;;;;;5022003;28;20214;-65
2023/05/04 01:19:05;;;;;;;3.00;2.50;;;11.70;72.50;;;;;;5010351;28;20296;-64
2023/05/04 01:21:34;;;;;;;3.33;2.50;;;11.70;72.50;;;;;;5028159;28;20598;-65
2023/05/04 01:24:02;;;;;;;3.67;2.50;;;11.70;72.60;;;;;;5031593;28;20205;-64
2023/05/04 01:26:34;;;;;;;3.93;2.50;;;10.30;71.20;;;;;;5033007;28;20199;-64
2023/05/04 01:29:06;;;;;;;3.67;2.40;;;11.70;72.70;;;;;;5033250;28;20190;-64
2023/05/04 01:31:36;;;;;;;4.47;2.83;;;11.70;72.70;;;;;;5029768;28;20274;-65
2023/05/04 01:34:05;;;;;;;4.17;3.27;;;11.70;73.40;;;;;;5031789;28;20291;-65
2023/05/04 01:36:35;;;;;;;8.10;3.70;;;11.80;73.50;;;;;;5032385;28;20214;-65
2023/05/04 01:39:03;;;;;;;12.07;4.67;;;11.80;72.60;;;;;;5033131;28;20255;-65
2023/05/04 01:41:33;;;;;;;9.83;5.20;;;11.80;72.60;;;;;;5015083;28;20643;-65
2023/05/04 01:44:00;;;;;;;9.27;5.00;;;11.90;72.60;;;;;;5014571;28;20202;-65
2023/05/04 01:46:27;;;;;;;10.87;5.47;;;11.80;72.60;;;;;;5032043;28;20201;-66
2023/05/04 01:48:54;;;;;;;12.30;5.40;;;11.80;72.60;;;;;;5014006;28;20305;-65
2023/05/04 01:51:22;;;;;;;12.63;6.03;;;11.80;72.60;;;;;;5014393;28;20301;-66
2023/05/04 01:53:51;;;;;;;12.50;6.33;;;11.80;72.70;;;;;;5032941;28;20288;-66
2023/05/04 01:56:19;;;;;;;10.83;5.90;;;11.70;72.70;;;;;;5032870;28;20662;-63
2023/05/04 01:58:46;;;;;;;12.40;6.03;;;11.70;72.80;;;;;;5014245;28;20253;-65
2023/05/04 02:01:14;;;;;;;14.53;6.73;;;11.70;72.80;;;;;;5013919;28;20630;-65
2023/05/04 02:03:41;;;;;;;12.93;6.50;;;11.70;73.00;;;;;;5029917;28;20238;-65
2023/05/04 02:06:10;;;;;;;11.97;5.87;;;11.70;73.00;;;;;;5014184;28;20206;-65
2023/05/04 02:08:37;;;;;;;11.67;6.10;;;11.70;73.00;;;;;;5012818;28;20238;-65
2023/05/04 02:11:05;;;;;;;13.30;6.63;;;11.70;73.10;;;;;;5031925;28;20212;-65
2023/05/04 02:13:32;;;;;;;13.57;6.77;;;11.70;73.00;;;;;;5012320;28;20337;-65
2023/05/04 02:16:00;;;;;;;15.80;7.57;;;11.70;73.00;;;;;;5031195;28;20273;-65
2023/05/04 02:18:27;;;;;;;13.23;7.10;;;11.70;73.00;;;;;;5025694;28;20222;-65
2023/05/04 02:20:54;;;;;;;19.13;7.77;;;11.70;73.10;;;;;;5032095;28;20198;-65
2023/05/04 02:23:21;;;;;;;15.27;7.57;;;11.70;73.20;;;;;;5009363;28;20211;-65
2023/05/04 02:25:48;;;;;;;17.90;7.50;;;11.70;73.20;;;;;;5021093;28;20232;-65
2023/05/04 02:28:17;;;;;;;14.53;7.03;;;11.70;73.20;;;;;;5011537;28;20195;-65
2023/05/04 02:30:44;;;;;;;13.63;6.63;;;11.70;73.20;;;;;;5030197;28;20190;-65
2023/05/04 02:33:11;;;;;;;15.63;6.43;;;11.60;73.20;;;;;;5028953;28;20278;-64
2023/05/04 02:35:38;;;;;;;11.57;6.53;;;11.60;73.20;;;;;;5030171;28;20201;-66
2023/05/04 02:38:06;;;;;;;14.63;6.93;;;11.60;73.40;;;;;;5008000;28;20316;-66
2023/05/04 02:40:33;;;;;;;16.53;7.47;;;11.60;73.40;;;;;;5031657;28;20578;-65
2023/05/04 02:43:00;;;;;;;16.40;7.47;;;11.50;73.40;;;;;;5031254;28;20201;-65
2023/05/04 02:45:28;;;;;;;15.20;7.23;;;11.50;73.50;;;;;;5011117;28;20334;-65
2023/05/04 02:47:56;;;;;;;13.00;6.63;;;11.40;73.60;;;;;;5021431;28;20199;-65
2023/05/04 02:50:23;;;;;;;10.87;6.40;;;11.40;73.50;;;;;;5022493;28;20198;-65
2023/05/04 02:52:50;;;;;;;12.83;5.67;;;11.40;73.50;;;;;;5026364;28;20228;-64
2023/05/04 02:55:17;;;;;;;11.90;6.47;;;11.30;73.50;;;;;;5027790;28;20680;-64
2023/05/04 02:57:44;;;;;;;10.27;6.07;;;11.30;73.60;;;;;;5025298;28;20213;-65
2023/05/04 03:00:12;;;;;;;16.47;7.70;;;11.20;73.60;;;;;;5026943;28;20189;-65
2023/05/04 03:02:41;;;;;;;9.40;5.37;;;11.20;73.70;;;;;;5026913;28;20732;-65
2023/05/04 03:05:11;;;;;;;10.57;5.77;;;11.20;73.80;;;;;;5028544;28;20214;-65
2023/05/04 03:07:40;;;;;;;10.30;5.00;;;11.10;73.80;;;;;;5028276;28;20214;-65
2023/05/04 03:10:09;;;;;;;11.77;5.70;;;11.10;73.80;;;;;;5030930;28;20209;-64
2023/05/04 03:12:36;;;;;;;11.03;5.53;;;11.00;73.80;;;;;;5031823;28;20731;-65
2023/05/04 03:15:04;;;;;;;13.33;5.87;;;11.10;74.70;;;;;;5029774;28;20665;-65
2023/05/04 03:17:32;;;;;;;10.80;5.10;;;12.00;74.80;;;;;;5013186;28;20218;-65
2023/05/04 03:20:01;;;;;;;17.43;5.93;;;11.10;73.90;;;;;;5013867;28;20293;-65
2023/05/04 03:22:29;;;;;;;17.60;6.00;;;11.10;74.20;;;;;;4998169;28;20199;-65
2023/05/04 03:24:57;;;;;;;14.80;5.80;;;11.10;74.10;;;;;;5030361;28;20206;-65
2023/05/04 03:27:24;;;;;;;12.03;5.73;;;11.10;74.00;;;;;;5031096;28;20187;-65
2023/05/04 03:29:52;;;;;;;14.53;6.00;;;11.10;74.00;;;;;;5010607;28;20270;-66
2023/05/04 03:32:20;;;;;;;13.03;5.30;;;11.10;73.90;;;;;;5011630;28;20228;-66
2023/05/04 03:34:47;;;;;;;15.40;5.47;;;11.20;73.90;;;;;;5012682;28;20329;-66
2023/05/04 03:37:17;;;;;;;10.03;5.17;;;11.20;73.80;;;;;;5012698;28;20249;-66
2023/05/04 03:39:44;;;;;;;11.33;5.23;;;11.20;73.80;;;;;;5030843;28;20632;-65
2023/05/04 03:42:11;;;;;;;9.57;5.07;;;11.20;73.70;;;;;;5030631;28;20194;-65
2023/05/04 03:44:39;;;;;;;9.93;4.40;;;11.20;73.60;;;;;;5029341;28;20237;-65
2023/05/04 03:47:07;;;;;;;9.60;4.73;;;11.20;73.50;;;;;;5011031;28;20209;-65
2023/05/04 03:49:34;;;;;;;12.27;5.13;;;11.20;73.50;;;;;;5012640;28;20208;-65
2023/05/04 03:52:01;;;;;;;9.23;4.93;;;11.20;73.60;;;;;;5030600;28;20280;-65
2023/05/04 03:54:30;;;;;;;9.57;4.33;;;11.10;73.80;;;;;;5027265;28;20207;-65
2023/05/04 03:56:57;;;;;;;8.93;4.60;;;11.10;73.50;;;;;;5030386;28;20207;-65
2023/05/04 03:59:25;;;;;;;6.33;4.10;;;11.10;73.60;;;;;;5029220;28;20564;-65
2023/05/04 04:01:52;;;;;;;11.97;4.57;;;11.00;73.60;;;;;;5029748;28;20196;-64
2023/05/04 04:04:19;;;;;;;9.27;4.13;;;11.00;73.70;;;;;;5010785;28;20233;-64
2023/05/04 04:06:46;;;;;;;8.07;3.93;;;11.00;74.00;;;;;;5012331;28;20367;-64
2023/05/04 04:09:14;;;;;;;7.33;3.60;;;10.90;73.70;;;;;;5007681;28;20725;-64
2023/05/04 04:11:43;;;;;;;8.60;4.27;;;11.00;73.80;;;;;;5029830;28;20703;-65
2023/05/04 04:14:10;;;;;;;9.73;3.60;;;11.00;73.70;;;;;;5009889;28;20207;-66
2023/05/04 04:16:37;;;;;;;7.20;3.27;;;11.10;73.70;;;;;;5028390;28;20256;-64
2023/05/04 04:19:05;;;;;;;6.13;3.40;;;11.20;73.80;;;;;;5027671;28;20737;-66
2023/05/04 04:21:32;;;;;;;6.57;3.57;;;11.20;73.70;;;;;;5029347;28;20666;-66
2023/05/04 04:23:59;;;;;;;5.87;3.20;;;11.30;73.70;;;;;;5026443;28;20187;-64
2023/05/04 04:26:27;;;;;;;7.43;3.50;;;11.30;73.60;;;;;;5021717;28;20215;-65
2023/05/04 04:28:55;;;;;;;4.43;2.70;;;11.30;73.60;;;;;;5029316;28;20200;-64
2023/05/04 04:31:22;;;;;;;5.93;3.87;;;11.30;73.60;;;;;;5029487;28;20253;-65
2023/05/04 04:33:51;;;;;;;7.60;3.73;;;11.40;73.60;;;;;;5030361;28;20664;-66
2023/05/04 04:36:18;;;;;;;5.17;3.33;;;11.40;73.60;;;;;;5030212;28;20205;-64
2023/05/04 04:38:46;;;;;;;6.20;3.47;;;11.50;73.60;;;;;;5013872;28;20283;-64
2023/05/04 04:41:13;;;;;;;9.10;3.60;;;11.50;73.60;;;;;;5031164;28;20191;-64
2023/05/04 04:43:40;;;;;;;5.73;3.60;;;11.60;73.60;;;;;;5033742;28;20248;-64
2023/05/04 04:46:09;;;;;;;8.37;2.77;;;11.60;73.50;;;;;;5033221;28;20228;-64
2023/05/04 04:48:36;;;;;;;6.10;3.10;;;11.70;73.50;;;;;;5032793;28;20194;-65
2023/05/04 04:51:04;;;;;;;7.40;3.50;;;11.70;73.50;;;;;;5033746;28;20256;-65
2023/05/04 04:53:31;;;;;;;8.43;4.07;;;11.70;73.60;;;;;;5033963;28;20195;-65
2023/05/04 04:55:58;;;;;;;8.20;3.93;;;11.70;73.60;;;;;;5014881;28;20228;-65
2023/05/04 04:58:25;;;;;;;5.33;3.17;;;11.70;73.60;;;;;;5033490;28;20210;-66
2023/05/04 05:00:54;;;;;;;4.80;2.67;;;11.70;73.50;;;;;;5012215;28;20213;-66
2023/05/04 05:03:23;;;;;;;3.57;2.80;;;11.80;73.40;;;;;;5021162;28;20711;-66
2023/05/04 05:05:50;;;;;;;4.27;2.70;;;11.80;73.20;;;;;;5033599;28;20257;-65
2023/05/04 05:08:17;;;;;;;2.90;2.47;;;11.80;73.00;;;;;;5028167;28;20303;-65
2023/05/04 05:10:44;;;;;;;3.17;2.40;;;11.90;72.90;;;;;;5030535;28;20646;-63
2023/05/04 05:13:11;;;;;;;4.87;2.67;;;11.90;72.60;;;;;;5031073;28;20203;-65
2023/05/04 05:15:38;;;;;;;4.03;2.73;;;12.00;72.30;;;;;;5030589;28;20199;-66
2023/05/04 05:18:05;;;;;;;3.37;2.40;;;12.00;72.20;;;;;;5031956;28;20213;-65
2023/05/04 05:20:34;;;;;;;5.10;2.73;;;12.10;72.20;;;;;;5030807;28;20210;-66
2023/05/04 05:23:01;;;;;;;4.13;2.13;;;12.10;72.20;;;;;;5032813;28;20222;-66
2023/05/04 05:25:28;;;;;;;8.83;2.60;;;12.20;72.30;;;;;;5031261;28;20198;-65
2023/05/04 05:27:55;;;;;;;5.13;2.77;;;12.20;72.80;;;;;;5031584;28;20196;-65
2023/05/04 05:30:22;;;;;;;6.53;2.93;;;12.30;72.10;;;;;;5010971;28;20645;-65
2023/05/04 05:32:49;;;;;;;6.30;2.67;;;12.30;72.00;;;;;;5014060;28;20627;-66
2023/05/04 05:35:17;;;;;;;7.23;3.47;;;12.30;72.00;;;;;;5029276;28;20557;-66
2023/05/04 05:37:45;;;;;;;7.77;3.50;;;12.40;71.90;;;;;;5013364;28;20551;-65
2023/05/04 05:40:14;;;;;;;4.03;2.97;;;12.50;71.70;;;;;;5030217;28;20308;-65
2023/05/04 05:42:41;;;;;;;5.77;2.97;;;12.50;71.40;;;;;;5031012;28;20257;-65
2023/05/04 05:45:10;;;;;;;8.20;3.03;;;12.60;71.10;;;;;;5029614;28;20202;-65
2023/05/04 05:47:37;;;;;;;3.63;2.80;;;12.70;70.90;;;;;;5011630;28;20222;-65
2023/05/04 05:50:04;;;;;;;4.40;2.50;;;12.80;70.70;;;;;;5030363;28;20195;-64
2023/05/04 05:52:31;;;;;;;5.03;3.03;;;12.80;70.60;;;;;;5023609;28;20206;-65
2023/05/04 05:54:59;;;;;;;7.83;3.43;;;12.80;70.30;;;;;;5029799;28;20201;-65
2023/05/04 05:57:26;;;;;;;7.47;3.90;;;12.90;70.20;;;;;;5030411;28;20565;-65
2023/05/04 05:59:54;;;;;;;4.17;3.13;;;13.00;70.00;;;;;;5030384;28;20191;-65
2023/05/04 06:02:21;;;;;;;4.63;3.03;;;13.00;69.50;;;;;;5030250;28;20495;-65
2023/05/04 06:04:48;;;;;;;2.90;2.40;;;13.10;69.20;;;;;;5032149;28;20262;-65
2023/05/04 06:07:15;;;;;;;4.40;2.77;;;13.10;69.10;;;;;;5031765;28;20294;-65
2023/05/04 06:09:42;;;;;;;7.33;3.33;;;13.20;68.80;;;;;;5031614;28;20188;-64
2023/05/04 06:12:12;;;;;;;5.30;2.97;;;13.20;68.00;;;;;;5028772;28;20207;-65
2023/05/04 06:14:39;;;;;;;2.67;2.37;;;13.20;67.60;;;;;;5024352;28;20187;-64
2023/05/04 06:17:06;;;;;;;3.50;1.93;;;13.30;67.60;;;;;;5024279;28;20223;-64
2023/05/04 06:19:34;;;;;;;2.97;1.93;;;13.40;67.70;;;;;;5026354;28;20218;-66
2023/05/04 06:22:01;;;;;;;3.53;1.70;;;13.40;67.40;;;;;;5018397;28;20622;-65
2023/05/04 06:24:29;;;;;;;1.40;1.30;;;13.40;67.30;;;;;;5025268;28;20196;-65
2023/05/04 06:26:56;;;;;;;2.20;1.20;;;13.50;67.10;;;;;;5024842;28;20210;-65
2023/05/04 06:29:25;;;;;;;1.70;1.00;;;13.50;66.40;;;;;;5024144;28;20272;-66
2023/05/04 06:31:52;;;;;;;0.90;0.90;;;13.50;66.00;;;;;;5012619;28;20535;-66
2023/05/04 06:34:19;;;;;;;2.10;1.30;;;13.50;65.40;;;;;;5019979;28;20296;-66
2023/05/04 06:36:47;;;;;;;2.13;0.90;;;13.60;64.70;;;;;;5028229;28;20185;-66
2023/05/04 06:39:15;;;;;;;1.10;1.00;;;13.60;65.40;;;;;;5027756;28;20200;-67
2023/05/04 06:41:42;;;;;;;2.60;1.10;;;13.70;64.80;;;;;;5029771;28;20198;-66
2023/05/04 06:44:09;;;;;;;0.80;0.80;;;13.80;64.60;;;;;;5029359;28;20238;-65
2023/05/04 06:46:37;;;;;;;0.70;0.70;;;13.80;64.40;;;;;;5021957;28;20633;-66
2023/05/04 06:49:05;;;;;;;1.03;0.90;;;13.90;64.30;;;;;;5020223;28;20588;-67
2023/05/04 06:51:34;;;;;;;1.80;0.93;;;13.90;63.80;;;;;;5023808;28;20744;-65
2023/05/04 06:54:01;;;;;;;0.77;0.77;;;13.90;63.30;;;;;;5028554;28;20222;-67
2023/05/04 06:56:28;;;;;;;1.73;1.00;;;13.90;63.10;;;;;;5024962;28;20633;-66
2023/05/04 06:58:55;;;;;;;1.00;0.90;;;14.20;63.00;;;;;;5029354;28;20249;-66
2023/05/04 07:01:22;;;;;;;0.77;0.70;;;14.00;62.60;;;;;;5010131;28;20509;-66
2023/05/04 07:03:52;;;;;;;1.33;0.90;;;14.00;62.50;;;;;;5023938;28;20411;-66
2023/05/04 07:06:19;;;;;;;0.87;0.80;;;14.10;62.60;;;;;;5023990;28;20189;-66
2023/05/04 07:08:47;;;;;;;0.77;0.70;;;14.20;62.60;;;;;;5010520;28;20268;-66
2023/05/04 07:11:14;;;;;;;4.93;1.40;;;14.20;62.40;;;;;;5025554;28;20292;-67
2023/05/04 07:13:41;;;;;;;3.43;1.50;;;14.30;61.80;;;;;;5008577;28;20249;-67
2023/05/04 07:16:08;;;;;;;2.17;1.33;;;14.30;61.80;;;;;;5022595;28;20272;-67
2023/05/04 07:18:37;;;;;;;1.20;0.90;;;14.30;61.60;;;;;;5021916;28;21558;-66
2023/05/04 07:21:09;;;;;;;1.37;1.00;;;14.40;61.80;;;;;;5021516;28;20196;-66
2023/05/04 07:23:37;;;;;;;4.97;1.30;;;14.50;61.40;;;;;;5024162;28;20189;-67
2023/05/04 07:26:04;;;;;;;3.93;1.23;;;14.50;60.90;;;;;;5024383;28;20196;-66
2023/05/04 07:28:32;;;;;;;1.57;1.03;;;14.60;60.70;;;;;;5011159;28;20685;-66
2023/05/04 07:30:59;;;;;;;0.80;0.70;;;14.70;60.80;;;;;;5008733;28;20310;-67
2023/05/04 07:33:27;;;;;;;2.63;1.17;;;14.80;60.60;;;;;;5027630;28;20279;-67
2023/05/04 07:35:57;;;;;;;0.97;0.87;;;14.80;60.00;;;;;;5022501;28;20195;-66
2023/05/04 07:38:26;;;;;;;2.07;1.03;;;15.00;60.20;;;;;;5027871;28;20214;-66
2023/05/04 07:40:54;;;;;;;1.40;1.17;;;15.10;60.40;;;;;;5019438;28;20195;-66
2023/05/04 07:43:21;;;;;;;1.93;1.03;;;15.10;60.30;;;;;;5020013;28;20276;-66
2023/05/04 07:45:48;;;;;;;4.27;1.00;;;15.20;60.10;;;;;;5008147;28;20253;-66
2023/05/04 07:48:15;;;;;;;2.87;1.03;;;15.30;60.00;;;;;;5028060;28;20205;-66
2023/05/04 07:50:42;;;;;;;0.70;0.60;;;15.40;59.50;;;;;;5007335;28;20209;-66
2023/05/04 07:53:09;;;;;;;1.67;0.70;;;15.40;59.30;;;;;;5010738;28;20209;-66
2023/05/04 07:55:38;;;;;;;2.10;1.20;;;15.40;59.20;;;;;;5026596;28;20654;-66
2023/05/04 07:58:05;;;;;;;2.37;1.20;;;15.40;58.70;;;;;;5028062;28;20252;-66
2023/05/04 08:00:32;;;;;;;1.37;0.97;;;15.50;58.60;;;;;;5026747;28;20891;-64
2023/05/04 08:02:59;;;;;;;0.80;0.80;;;15.50;58.70;;;;;;5009035;28;20260;-65
2023/05/04 08:05:26;;;;;;;2.73;0.93;;;15.60;58.70;;;;;;5029512;28;20232;-65
2023/05/04 08:07:53;;;;;;;3.20;1.10;;;15.70;58.70;;;;;;5032756;28;20227;-65
2023/05/04 08:10:23;;;;;;;2.03;1.07;;;15.70;58.40;;;;;;5029804;28;20225;-65
2023/05/04 08:12:52;;;;;;;1.07;0.70;;;15.80;58.10;;;;;;5024303;28;20191;-65
2023/05/04 08:15:19;;;;;;;2.17;1.00;;;15.80;58.00;;;;;;5031060;28;20201;-66
2023/05/04 08:17:46;;;;;;;5.13;1.63;;;15.90;57.90;;;;;;5024025;28;20194;-66
2023/05/04 08:20:13;;;;;;;4.03;1.40;;;15.90;57.70;;;;;;5029175;28;20221;-66
2023/05/04 08:22:40;;;;;;;2.53;1.10;;;16.00;57.80;;;;;;5032322;28;20347;-66
2023/05/04 08:25:08;;;;;;;3.40;1.20;;;16.10;57.60;;;;;;5031379;28;20692;-65
2023/05/04 08:27:35;;;;;;;1.03;0.90;;;16.10;57.60;;;;;;5030138;28;20577;-67
2023/05/04 08:30:05;;;;;;;3.80;1.50;;;16.20;57.40;;;;;;5029165;28;20230;-65
2023/05/04 08:32:32;;;;;;;1.80;1.07;;;16.20;56.90;;;;;;5029528;28;20301;-66
2023/05/04 08:34:59;;;;;;;5.73;1.60;;;16.30;56.90;;;;;;5029293;28;20229;-67
2023/05/04 08:37:26;;;;;;;3.57;1.50;;;16.40;56.40;;;;;;5008559;28;20202;-66
2023/05/04 08:39:53;;;;;;;2.70;1.50;;;16.40;56.20;;;;;;5031010;28;20229;-66
2023/05/04 08:42:27;;;;;;;3.13;1.30;;;16.50;56.30;;;;;;5031746;28;20191;-66
2023/05/04 08:44:56;;;;;;;4.57;1.60;;;16.60;56.10;;;;;;5020665;28;20284;-66
2023/05/04 08:47:25;;;;;;;1.50;0.93;;;16.70;56.50;;;;;;5029860;28;20583;-66
2023/05/04 08:49:53;;;;;;;1.20;1.03;;;16.70;55.80;;;;;;5017390;28;20490;-66
2023/05/04 08:52:23;;;;;;;1.87;0.80;;;16.80;55.80;;;;;;5015851;28;20207;-66
2023/05/04 08:54:53;;;;;;;1.63;1.10;;;16.90;56.00;;;;;;5031489;28;20264;-66
2023/05/04 08:57:22;;;;;;;5.33;1.73;;;16.90;55.90;;;;;;5030630;28;20220;-66
2023/05/04 08:59:51;;;;;;;3.33;1.70;;;17.00;55.30;;;;;;5012949;28;20526;-67
2023/05/04 09:02:21;;;;;;;3.30;1.20;;;17.10;54.80;;;;;;5027879;28;20214;-66
2023/05/04 09:04:49;;;;;;;3.00;1.37;;;17.10;55.10;;;;;;5031010;28;20238;-67
2023/05/04 09:07:17;;;;;;;3.93;1.33;;;17.20;54.80;;;;;;5022239;28;20202;-67
2023/05/04 09:09:49;;;;;;;2.30;0.87;;;17.30;55.00;;;;;;5023746;28;20205;-65
2023/05/04 09:12:17;;;;;;;1.53;1.13;;;17.40;55.70;;;;;;5027183;28;20667;-66
2023/05/04 09:14:45;;;;;;;1.73;0.80;;;17.50;56.20;;;;;;5029929;28;20240;-66
2023/05/04 09:17:24;;;;;;;2.40;0.93;;;17.60;56.50;;;;;;5019983;28;20197;-66
2023/05/04 09:19:59;;;;;;;0.90;0.90;;;17.70;56.80;;;;;;5031162;28;20204;-66
2023/05/04 09:22:26;;;;;;;7.13;2.20;;;17.80;57.20;;;;;;5012971;28;20248;-67
2023/05/04 09:24:53;;;;;;;3.13;1.90;;;17.90;56.70;;;;;;5029166;28;20222;-66
2023/05/04 09:27:21;;;;;;;2.77;1.70;;;17.90;55.90;;;;;;5007801;28;20639;-65
2023/05/04 09:29:54;;;;;;;1.87;1.33;;;17.90;56.20;;;;;;5030017;28;20203;-66
2023/05/04 09:32:21;;;;;;;1.77;1.40;;;18.00;56.90;;;;;;5027098;28;20211;-67
2023/05/04 09:34:50;;;;;;;1.33;1.23;;;18.00;57.00;;;;;;5030810;28;20633;-65
2023/05/04 09:37:20;;;;;;;1.73;1.30;;;18.00;57.20;;;;;;5029570;28;20553;-65
2023/05/04 09:39:54;;;;;;;1.60;1.27;;;18.10;57.40;;;;;;5030525;28;20206;-66
2023/05/04 09:42:22;;;;;;;1.00;1.00;;;18.10;57.40;;;;;;5029899;28;20203;-65
2023/05/04 09:44:59;;;;;;;1.53;1.00;;;18.20;57.50;;;;;;5026965;28;20609;-65
2023/05/04 09:47:34;;;;;;;3.65;1.50;;;18.30;57.30;;;;;;5028954;28;20211;-65
2023/05/04 09:50:15;;;;;;;4.07;1.87;;;18.30;56.90;;;;;;5013304;28;20202;-65
2023/05/04 09:52:45;;;;;;;2.17;1.50;;;18.30;56.60;;;;;;5029523;28;20187;-67
2023/05/04 09:55:14;;;;;;;2.13;1.38;;;18.30;56.60;;;;;;5012335;28;20215;-66
2023/05/04 09:57:42;;;;;;;1.40;1.30;;;18.40;56.40;;;;;;5011233;28;20213;-66
2023/05/04 10:00:12;;;;;;;1.40;1.30;;;18.40;56.30;;;;;;5020912;28;20228;-67
2023/05/04 10:02:39;;;;;;;3.43;1.87;;;18.50;56.30;;;;;;5019671;28;20291;-66
2023/05/04 10:05:08;;;;;;;5.43;2.43;;;18.60;55.40;;;;;;5029443;28;20200;-66
2023/05/04 10:07:35;;;;;;;3.00;1.90;;;18.60;55.20;;;;;;5016170;28;20201;-66
2023/05/04 10:10:06;;;;;;;2.30;1.50;;;18.60;55.00;;;;;;5029900;28;20303;-67
2023/05/04 10:12:33;;;;;;;2.08;1.50;;;18.70;55.30;;;;;;5014719;28;20197;-66
2023/05/04 10:15:01;;;;;;;1.20;0.95;;;18.80;56.00;;;;;;5023579;28;20227;-66
2023/05/04 10:18:03;;;;;;;1.33;1.10;;;19.00;55.50;;;;;;5026907;28;20253;-66
2023/05/04 10:20:46;;;;;;;3.83;1.00;;;19.00;55.50;;;;;;5020668;28;20318;-66
2023/05/04 10:23:46;;;;;;;2.28;1.20;;;19.10;55.40;;;;;;5028559;28;20193;-66
2023/05/04 10:26:41;;;;;;;7.15;1.10;;;19.20;55.40;;;;;;5030252;28;20565;-66
2023/05/04 10:29:18;;;;;;;1.25;1.05;;;19.30;55.20;;;;;;5027005;28;20200;-66
2023/05/04 10:31:46;;;;;;;1.58;1.30;;;19.40;55.10;;;;;;5014516;28;20229;-66
2023/05/04 10:34:24;;;;;;;2.90;1.63;;;19.50;54.70;;;;;;5005947;28;20234;-66
2023/05/04 10:36:51;;;;;;;1.63;1.27;;;19.50;53.80;;;;;;4985497;28;20199;-69
2023/05/04 10:39:20;;;;;;;1.73;1.00;;;19.50;53.90;;;;;;5007935;28;20214;-68
2023/05/04 10:42:02;;;;;;;1.30;1.20;;;19.60;54.10;;;;;;5006162;28;20257;-67
2023/05/04 10:44:31;;;;;;;1.75;1.20;;;19.70;54.10;;;;;;5007349;28;20195;-68
2023/05/04 10:47:00;;;;;;;2.60;1.33;;;19.80;54.00;;;;;;5003743;28;20198;-68
2023/05/04 10:49:27;;;;;;;4.50;2.00;;;19.90;53.80;;;;;;5005537;28;20187;-68
2023/05/04 10:52:12;;;;;;;5.28;2.05;;;19.90;52.90;;;;;;5007137;28;20207;-69
2023/05/04 10:54:40;;;;;;;1.63;1.45;;;19.90;52.70;;;;;;5007381;28;20349;-68
2023/05/04 10:57:11;;;;;;;1.42;1.33;;;19.90;52.80;;;;;;5004733;28;20763;-69
2023/05/04 10:59:39;;;;;;;3.00;1.58;;;20.00;53.60;;;;;;4991585;28;20321;-69
2023/05/04 11:02:08;;;;;;;1.30;1.20;;;20.10;52.80;;;;;;5004602;28;20674;-68
2023/05/04 11:04:36;;;;;;;1.85;1.02;;;20.30;52.60;;;;;;4994058;28;20620;-69
2023/05/04 11:07:04;;;;;;;3.05;1.05;;;20.30;52.40;;;;;;4993761;28;20635;-69
2023/05/04 11:09:36;;;;;;;1.63;0.88;;;20.40;52.30;;;;;;5007162;28;20579;-69
2023/05/04 11:12:04;;;;;;;1.00;0.90;;;20.50;52.20;;;;;;5006848;28;20624;-69
2023/05/04 11:14:36;;;;;;;1.25;1.15;;;20.50;52.10;;;;;;4993318;28;20206;-69
2023/05/04 11:17:07;;;;;;;1.23;0.85;;;20.70;52.00;;;;;;5004601;28;20531;-69
2023/05/04 11:19:34;;;;;;;2.15;1.17;;;20.70;51.60;;;;;;5005849;28;20203;-68
2023/05/04 11:22:02;;;;;;;1.77;1.13;;;20.70;51.60;;;;;;4987960;28;20281;-68
2023/05/04 11:24:40;;;;;;;1.02;1.00;;;20.70;51.60;;;;;;5004811;28;20199;-69
2023/05/04 11:27:07;;;;;;;0.75;0.75;;;20.60;51.80;;;;;;5006191;28;20760;-69
2023/05/04 11:29:36;;;;;;;3.40;0.90;;;22.20;53.00;;;;;;4992873;28;20496;-69
2023/05/04 11:32:03;;;;;;;2.05;1.27;;;20.50;51.60;;;;;;4992134;28;20317;-68
2023/05/04 11:34:30;;;;;;;2.72;1.08;;;20.40;51.50;;;;;;5003535;28;20269;-68
2023/05/04 11:36:58;;;;;;;2.97;1.02;;;20.30;51.70;;;;;;5006747;28;20199;-69
2023/05/04 11:39:26;;;;;;;1.88;1.30;;;20.20;51.60;;;;;;5002733;28;20194;-69
2023/05/04 11:41:54;;;;;;;1.88;1.60;;;20.20;51.70;;;;;;5007472;28;20674;-69
2023/05/04 11:44:22;;;;;;;3.28;1.52;;;20.10;51.30;;;;;;5003985;28;20279;-68
2023/05/04 11:46:51;;;;;;;2.13;1.00;;;20.00;51.10;;;;;;4992266;28;20270;-68
2023/05/04 11:49:20;;;;;;;1.20;0.90;;;19.90;50.90;;;;;;5006484;28;20443;-69
2023/05/04 11:51:47;;;;;;;1.77;1.10;;;19.90;50.80;;;;;;5006972;28;20222;-69
2023/05/04 11:54:22;;;;;;;1.10;1.00;;;19.80;50.60;;;;;;4992635;28;20199;-66
2023/05/04 11:56:49;;;;;;;2.70;1.10;;;19.90;50.60;;;;;;5006562;28;20278;-66
2023/05/04 11:59:16;;;;;;;1.27;1.17;;;19.80;50.40;;;;;;5004655;28;20222;-66
2023/05/04 12:01:43;;;;;;;2.97;0.93;;;19.80;50.50;;;;;;5007341;28;20214;-66
2023/05/04 12:04:12;;;;;;;1.42;1.00;;;19.70;50.30;;;;;;5004949;28;20239;-65
2023/05/04 12:06:39;;;;;;;3.80;0.90;;;19.70;50.10;;;;;;5006451;28;20202;-66
2023/05/04 12:09:06;;;;;;;1.77;1.02;;;20.20;50.50;;;;;;5004836;28;20231;-66
2023/05/04 12:11:37;;;;;;;2.25;1.05;;;19.60;49.90;;;;;;5006549;28;20637;-66
2023/05/04 12:14:06;;;;;;;4.05;1.20;;;19.60;49.60;;;;;;5004909;28;20610;-67
2023/05/04 12:16:34;;;;;;;1.20;1.10;;;19.50;49.50;;;;;;5003390;28;20666;-67
2023/05/04 12:19:05;;;;;;;1.40;1.00;;;19.50;49.60;;;;;;5005344;28;20206;-66
2023/05/04 12:21:35;;;;;;;1.90;1.05;;;19.50;49.60;;;;;;4991372;28;20214;-66
2023/05/04 12:24:03;;;;;;;0.95;0.93;;;19.40;49.40;;;;;;4992433;28;20614;-67
2023/05/04 12:26:30;;;;;;;1.63;0.98;;;19.40;49.60;;;;;;5006904;28;20350;-67
2023/05/04 12:28:57;;;;;;;2.30;1.08;;;19.30;49.30;;;;;;5005541;28;20198;-67
2023/05/04 12:31:25;;;;;;;1.45;0.80;;;19.40;49.50;;;;;;5004800;28;20191;-65
2023/05/04 12:33:53;;;;;;;0.75;0.60;;;19.40;49.40;;;;;;4986163;28;20262;-66
2023/05/04 12:36:21;;;;;;;0.98;0.70;;;19.40;49.40;;;;;;5005736;28;20520;-65
2023/05/04 12:38:50;;;;;;;2.45;0.90;;;19.40;49.50;;;;;;5004805;28;20263;-66
2023/05/04 12:41:17;;;;;;;1.75;1.00;;;19.40;49.70;;;;;;5004649;28;20202;-66
2023/05/04 12:43:44;;;;;;;1.20;0.82;;;19.40;49.80;;;;;;5006706;28;20639;-66
2023/05/04 12:46:11;;;;;;;1.60;1.10;;;19.40;50.10;;;;;;5006298;28;20310;-67
2023/05/04 12:48:38;;;;;;;1.35;1.08;;;19.40;50.40;;;;;;5006386;28;20272;-66
2023/05/04 12:51:05;;;;;;;1.33;0.80;;;19.40;50.50;;;;;;5006460;28;20242;-66
2023/05/04 12:53:33;;;;;;;6.28;1.48;;;19.40;50.60;;;;;;4998314;28;20229;-66